Terminal Aerodrome Forecast
Issued by NWS

Current Version | Previous Version | Text Only | Print | Product List | Glossary On
Versions: 1 2 3 4 5 6 7 8 9 10 11 12 13 14 15 16 17
000
FTUS45 KVEF 271600 AAA
TAFDAG
TAF AMD
KDAG 271606Z 2716/2812 08004KT P6SM OVC035
      TEMPO 2716/2718 5SM BR OVC003
     FM271800 VRB05KT P6SM BKN035
     FM272100 07005KT P6SM BKN040
     FM280200 27005KT P6SM SCT040=

USA.gov is the U.S. government's official web portal to all federal, state and local government web resources and services.